• Join FlightAware (Why Join?)
  • Login
  • US Flag 
03:49PM EST


 

Airport Tracker/Info


-or-


 

Live Flight TrackerFlight Track Log ✈ GJS6221 ✈ 25-Jun-2013 ✈ CYUL - KLGA

Flight Track Log - Related Links

Times and Time Zones

All times are in EDT time to prevent confusion due to time zone crossing. See the GJS6221 flight status page for this flight to view local times or setup timezone preferences in your user account.

Time Position Orientation Groundspeed Altitude Reporting Facility
EDT Latitude Longitude Course Direction KTS MPH feet Rate Location/Type
07:21AM 45.4167 -73.7500 203° Southwest 190 219 1,700  Level Montreal Center
07:22AM 45.3833 -73.8000 227° Southwest 200 230 4,600 2,880 Climbing Montreal Center
07:23AM 45.3333 -73.8667 223° Southwest 200 230 7,500 2,400 Climbing Montreal Center
07:24AM 45.2667 -73.9000 199° South 250 288 9,400 1,800 Climbing Montreal Center
07:25AM 45.1833 -73.9167 188° South 300 345 11,100 1,560 Climbing Montreal Center
07:26AM 44.8977 -74.0277 203° Southwest  Level FlightAware Approximate
07:26AM 45.1000 -73.9833 209° Southwest 340 391 12,600  Level Montreal Center
07:27AM 44.8041 -74.0825 203° Southwest  Level FlightAware Approximate
07:27AM 45.0000 -74.0000 187° South 360 414 14,700  Level Montreal Center
07:28AM 44.9000 -74.0500 200° South 360 414 16,600 1,740 Climbing Montreal Center
07:29AM 44.8000 -74.0833 193° South 380 437 18,200 1,620 Climbing Montreal Center
07:30AM 44.7000 -74.1333 200° South 390 449 19,900 1,620 Climbing Montreal Center
07:31AM 44.5833 -74.1167 174° South 410 472 21,500 1,560 Climbing Montreal Center
07:32AM 44.4667 -74.1000 174° South 410 472 23,100 1,440 Climbing Montreal Center
07:33AM 44.3500 -74.0667 168° South 420 483 24,400 1,140 Climbing Montreal Center
07:34AM 44.2333 -74.0500 174° South 430 495 25,400 900 Climbing Montreal Center
07:35AM 44.1167 -74.0333 174° South 440 506 26,300 900 Climbing Montreal Center
07:36AM 43.9833 -74.0167 175° South 450 518 27,200 840 Climbing Montreal Center
07:37AM 43.8667 -74.0000 174° South 450 518 28,000 360 Climbing Montreal Center
07:38AM 43.7333 -73.9833 175° South 460 529 28,000  Level Montreal Center
07:39AM 43.6167 -73.9333 163° South 460 529 28,000  Level Montreal Center
07:40AM 43.4833 -73.9167 175° South 460 529 28,000 -60 Level Montreal Center
07:42AM 43.3558 -73.9106 178° South 467 537 27,900  Descending Boston Center
07:43AM 43.2247 -73.8903 174° South 467 537 28,000  Climbing Boston Center
07:44AM 43.0981 -73.8675 173° South 467 537 27,900 -900 Descending Boston Center
07:45AM 42.9711 -73.8419 172° South 467 537 26,300 -1,560 Descending Boston Center
07:46AM 42.8422 -73.8247 174° South 467 537 24,800 -1,500 Descending Boston Center
07:47AM 42.7236 -73.8022 172° South 449 517 23,300 -1,620 Descending Boston Center
07:48AM 42.5967 -73.7769 172° South 434 499 21,600 -1,620 Descending Boston Center
07:49AM 42.4825 -73.7519 171° South 423 487 20,100 -1,440 Descending Boston Center
07:50AM 42.3806 -73.7272 170° South 423 487 18,800 -1,080 Descending Boston Center
07:51AM 42.2597 -73.7164 176° South 411 473 18,000 -420 Descending Boston Center
07:52AM 42.1597 -73.7256 184° South 403 464 18,000  Level Boston Center
07:53AM 42.0742 -73.7350 185° South 403 464 18,000 -60 Level Boston Center
07:54AM 41.9344 -73.7461 183° South 392 451 17,900 -900 Descending Boston Center
07:55AM 41.8322 -73.7553 184° South 385 443 16,200 -1,740 Descending Boston Center
07:56AM 41.7278 -73.7642 184° South 380 437 14,500 -1,800 Descending Boston Center
07:57AM 41.6297 -73.7733 184° South 369 425 12,600 -1,740 Descending Boston Center
07:58AM 41.5000 -73.7833 183° South 326 375 10,600 -1,440 Descending New York TRACON
07:59AM 41.4167 -73.7833 180° South 281 323 9,300 -1,320 Descending New York TRACON
08:00AM 41.3500 -73.8000 191° South 275 316 8,100 -1,020 Descending New York TRACON
08:01AM 41.2833 -73.7333 143° Southeast 291 335 7,400 -1,140 Descending New York TRACON
08:02AM 41.2167 -73.6833 151° Southeast 281 323 6,000 -1,680 Descending New York TRACON
08:03AM 41.1667 -73.6333 143° Southeast 275 316 4,300 -960 Descending New York TRACON
08:04AM 41.1000 -73.6167 169° South 268 308 4,100 -120 Descending New York TRACON
08:05AM 41.0333 -73.6667 210° Southwest 262 302 4,100 -360 Level New York TRACON
08:06AM 40.9667 -73.7167 210° Southwest 269 310 3,500 -720 Descending New York TRACON
08:07AM 40.9000 -73.7667 210° Southwest 243 280 2,700 -900 Descending New York TRACON
08:08AM 40.8667 -73.8000 217° Southwest 224 258 1,900 -900 Descending New York TRACON
08:09AM 40.8167 -73.8500 217° Southwest 146 168 1,000 -840 Descending New York TRACON
08:11AM 40.7772 -73.8726 180° South  Level Estimated
08:18AM 40.7772 -73.8726 180° South  Level Estimated
08:19AM 40.7772 -73.8726 180° South  Level Estimated